Terminal Aerodrome Forecast
Issued by NWS Louisville, KY

Home | Current Version | Previous Version | Text Only | Print | Product List | Glossary On
Versions: 1 2 3 4 5 6 7 8 9 10 11 12 13 14 15 16 17 18 19 20 21 22 23 24 25 26 27 28 29 30
000
FTUS43 KLMK 172112 AAB
TAFSDF
TAF AMD
KSDF 172112Z 1721/1824 28017G23KT P6SM SCT023 BKN030
      TEMPO 1721/1723 BKN023
     FM172300 27012G18KT P6SM BKN021
      TEMPO 1800/1803 BKN015
     FM180300 28010KT P6SM OVC015
     FM181800 VRB04KT P6SM BKN025=

USA.gov is the U.S. government's official web portal to all federal, state and local government web resources and services.